Time;durP1;ratioP1;P1;durP2;ratioP2;P2;SDS_P1;SDS_P2;PMS_P1;PMS_P2;Temp;Humidity;BMP_temperature;BMP_pressure;BME280_temperature;BME280_humidity;BME280_pressure;Samples;Min_cycle;Max_cycle;Signal;HPM_P1;HPM_P2
2022/04/12 00:00:46;;;;;;;5.70;4.70;;;;;;;7.28;37.68;99354.81;5085806;28;20040;-73
2022/04/12 00:03:18;;;;;;;7.20;4.78;;;;;;;7.22;37.77;99353.31;5085785;28;20050;-72
2022/04/12 00:05:46;;;;;;;6.47;4.47;;;;;;;6.96;37.82;99306.94;5086490;28;20083;-73
2022/04/12 00:08:17;;;;;;;7.03;3.97;;;;;;;7.24;38.04;99354.09;5086181;28;20075;-73
2022/04/12 00:10:47;;;;;;;5.90;3.90;;;;;;;7.28;37.53;99347.78;5067962;28;20047;-73
2022/04/12 00:13:18;;;;;;;7.45;5.05;;;;;;;7.30;37.81;99352.97;5089924;28;20052;-73
2022/04/12 00:15:48;;;;;;;6.90;4.40;;;;;;;7.23;38.03;99352.38;5089959;28;20044;-73
2022/04/12 00:21:08;;;;;;;6.47;4.75;;;;;;;7.20;38.06;99339.31;5089773;28;20082;-73
2022/04/12 00:23:40;;;;;;;7.05;3.92;;;;;;;7.19;38.23;99337.63;5071857;28;20040;-72
2022/04/12 00:26:13;;;;;;;8.23;4.65;;;;;;;7.13;38.31;99337.00;5071751;28;20051;-72
2022/04/12 00:28:46;;;;;;;8.95;5.40;;;;;;;7.14;37.80;99331.69;5089504;28;20112;-73
2022/04/12 00:31:19;;;;;;;6.82;4.93;;;;;;;7.13;37.92;99335.22;5071681;28;20067;-73
2022/04/12 00:33:52;;;;;;;7.68;4.35;;;;;;;7.14;38.02;99342.22;5071599;28;20036;-73
2022/04/12 00:36:25;;;;;;;7.78;5.13;;;;;;;6.88;37.98;99284.47;5089094;28;20091;-73
2022/04/12 00:38:57;;;;;;;6.68;4.38;;;;;;;7.13;37.89;99337.88;5088864;28;20040;-73
2022/04/12 00:41:35;;;;;;;6.72;4.35;;;;;;;7.12;37.88;99333.50;5088692;28;20040;-73
2022/04/12 00:44:07;;;;;;;5.85;3.67;;;;;;;7.02;38.43;99332.19;5088900;28;20041;-73
2022/04/12 00:46:39;;;;;;;5.20;4.15;;;;;;;6.91;38.70;99334.41;5088788;28;20045;-73
2022/04/12 00:49:13;;;;;;;8.70;4.88;;;;;;;6.91;38.45;99334.41;5088461;28;20066;-73
2022/04/12 00:51:47;;;;;;;6.93;4.47;;;;;;;6.92;38.90;99330.84;5088418;28;20041;-72
2022/04/12 00:54:20;;;;;;;7.70;4.78;;;;;;;5.69;39.36;99141.81;5088505;28;20232;-72
2022/04/12 00:56:53;;;;;;;6.95;4.80;;;;;;;6.82;39.88;99325.09;5071041;28;20040;-73
2022/04/12 00:59:26;;;;;;;6.35;4.50;;;;;;;6.74;40.67;99322.72;5070911;28;20250;-72
2022/04/12 01:01:59;;;;;;;7.22;4.47;;;;;;;6.62;40.77;99328.47;5088355;28;20082;-73
2022/04/12 01:04:33;;;;;;;7.78;4.38;;;;;;;6.28;40.61;99273.66;5071249;28;20044;-73
2022/04/12 01:07:06;;;;;;;6.72;4.28;;;;;;;6.67;40.35;99330.94;5088509;28;20316;-73
2022/04/12 01:09:40;;;;;;;5.68;4.55;;;;;;;6.14;40.43;99230.38;5070439;28;20076;-73
2022/04/12 01:12:13;;;;;;;5.53;4.10;;;;;;;6.37;40.69;99269.81;5088122;28;20212;-73
2022/04/12 01:14:45;;;;;;;5.55;4.60;;;;;;;6.66;40.63;99329.22;5070926;28;20051;-73
2022/04/12 01:17:17;;;;;;;6.28;4.43;;;;;;;6.17;40.98;99261.84;5088152;28;20050;-73
2022/04/12 01:19:50;;;;;;;5.40;4.15;;;;;;;6.52;41.65;99340.28;5088192;28;20255;-73
2022/04/12 01:22:27;;;;;;;6.07;3.67;;;;;;;6.18;42.22;99276.72;5053672;28;20075;-73
2022/04/12 01:25:01;;;;;;;5.78;4.30;;;;;;;5.79;41.60;99227.34;5071723;28;20043;-73
2022/04/12 01:27:34;;;;;;;5.60;4.00;;;;;;;6.36;41.96;99332.13;5087973;28;20083;-72
2022/04/12 01:30:08;;;;;;;6.90;4.45;;;;;;;6.39;41.79;99334.66;5088005;28;20041;-72
2022/04/12 01:32:40;;;;;;;7.68;4.93;;;;;;;6.46;41.21;99330.00;5070644;28;20041;-73
2022/04/12 01:35:12;;;;;;;9.52;3.83;;;;;;;6.38;41.80;99330.31;5087780;28;20036;-73
2022/04/12 01:37:44;;;;;;;7.15;4.60;;;;;;;6.35;41.81;99325.16;5087739;28;20037;-72
2022/04/12 01:40:18;;;;;;;6.38;4.88;;;;;;;6.30;43.13;99323.63;5053859;28;20052;-72
2022/04/12 01:42:52;;;;;;;7.80;4.85;;;;;;;6.02;42.09;99295.72;5070290;28;20040;-73
2022/04/12 01:45:25;;;;;;;12.45;5.68;;;;;;;6.23;41.96;99330.88;5070382;28;20040;-72
2022/04/12 01:47:58;;;;;;;7.10;4.57;;;;;;;5.95;41.99;99288.97;5087926;28;20240;-73
2022/04/12 01:50:30;;;;;;;9.50;4.85;;;;;;;6.23;41.86;99338.78;5087533;28;20052;-73
2022/04/12 01:53:02;;;;;;;9.63;5.35;;;;;;;6.31;41.97;99338.50;5087664;28;20040;-73
2022/04/12 01:55:35;;;;;;;7.55;5.15;;;;;;;5.98;42.31;99288.84;5069836;28;20036;-73
2022/04/12 01:58:08;;;;;;;7.00;4.30;;;;;;;6.16;43.19;99341.69;5087616;28;20052;-72
2022/04/12 02:00:42;;;;;;;8.98;4.50;;;;;;;5.84;42.47;99277.13;5087244;28;20036;-73
2022/04/12 02:03:15;;;;;;;6.10;4.18;;;;;;;6.09;42.71;99339.28;5069933;28;20036;-72
2022/04/12 02:05:47;;;;;;;5.05;4.28;;;;;;;6.06;42.76;99339.41;5087090;28;20082;-73
2022/04/12 02:08:17;;;;;;;6.38;4.70;;;;;;;6.13;42.54;99336.56;5087031;28;20056;-73
2022/04/12 02:10:50;;;;;;;7.63;4.68;;;;;;;6.15;43.24;99335.56;5087451;28;20292;-73
2022/04/12 02:13:17;;;;;;;5.25;3.92;;;;;;;6.05;42.91;99332.44;5086725;28;20064;-73
2022/04/12 02:15:47;;;;;;;5.93;4.63;;;;;;;5.63;42.97;99278.78;5069685;28;20067;-73
2022/04/12 02:18:18;;;;;;;5.85;4.47;;;;;;;5.54;43.49;99272.09;5054212;28;20162;-73
2022/04/12 02:20:48;;;;;;;6.80;4.25;;;;;;;4.86;43.33;99151.88;5086952;28;20055;-73
2022/04/12 02:23:18;;;;;;;7.40;4.53;;;;;;;5.93;43.11;99334.66;5087502;28;20036;-73
2022/04/12 02:25:49;;;;;;;8.85;5.10;;;;;;;5.96;43.24;99334.53;5087051;28;20315;-73
2022/04/12 02:28:18;;;;;;;4.85;3.60;;;;;;;5.61;43.64;99280.59;5087104;28;20094;-73
2022/04/12 02:30:48;;;;;;;6.85;4.55;;;;;;;5.84;43.35;99330.59;5086716;28;20196;-73
2022/04/12 02:33:18;;;;;;;7.82;5.78;;;;;;;5.88;43.26;99328.72;5069530;28;20048;-73
2022/04/12 02:35:48;;;;;;;6.63;4.13;;;;;;;5.76;43.87;99324.75;5086186;28;20147;-73
2022/04/12 02:38:20;;;;;;;7.07;4.40;;;;;;;5.75;43.79;99323.03;5068684;28;20059;-73
2022/04/12 02:40:50;;;;;;;6.68;4.53;;;;;;;5.41;43.79;99276.06;5086445;28;20174;-73
2022/04/12 02:43:19;;;;;;;6.05;4.47;;;;;;;5.72;43.97;99331.03;5069293;28;20056;-73
2022/04/12 02:45:49;;;;;;;7.25;4.50;;;;;;;5.62;44.56;99333.13;5086862;28;20025;-73
2022/04/12 02:48:19;;;;;;;6.10;4.45;;;;;;;5.51;44.22;99345.78;5069233;28;20044;-73
2022/04/12 02:50:49;;;;;;;6.55;4.57;;;;;;;5.57;44.56;99335.06;5086369;28;20138;-73
2022/04/12 02:53:19;;;;;;;7.40;5.10;;;;;;;5.56;44.94;99330.72;5086848;28;20032;-73
2022/04/12 02:55:51;;;;;;;8.20;5.03;;;;;;;4.93;44.57;99229.56;5069006;28;20041;-73
2022/04/12 02:58:20;;;;;;;7.88;5.57;;;;;;;5.62;44.05;99333.13;5068620;28;20351;-73
2022/04/12 03:00:50;;;;;;;7.28;5.22;;;;;;;5.64;44.43;99335.72;5085498;28;20052;-73
2022/04/12 03:03:20;;;;;;;6.35;4.68;;;;;;;5.68;44.02;99334.69;5086633;28;20040;-73
2022/04/12 03:05:50;;;;;;;6.13;5.03;;;;;;;5.47;44.12;99296.00;5086256;28;20068;-72
2022/04/12 03:08:20;;;;;;;5.65;4.47;;;;;;;5.64;44.18;99322.56;5086004;28;20114;-73
2022/04/12 03:10:52;;;;;;;8.82;4.13;;;;;;;5.58;44.53;99331.53;5085852;28;20036;-72
2022/04/12 03:13:20;;;;;;;6.80;4.93;;;;;;;5.58;44.86;99325.41;5085878;28;20040;-73
2022/04/12 03:15:51;;;;;;;7.70;4.18;;;;;;;5.24;44.75;99279.28;5085920;28;20086;-73
2022/04/12 03:18:21;;;;;;;6.93;4.45;;;;;;;4.57;45.15;99222.88;5086084;28;20040;-73
2022/04/12 03:20:51;;;;;;;8.60;5.20;;;;;;;5.28;45.90;99346.59;5068594;28;20048;-73
2022/04/12 03:23:21;;;;;;;6.53;5.05;;;;;;;5.34;45.17;99345.50;5068338;28;20111;-73
2022/04/12 03:25:52;;;;;;;7.63;5.60;;;;;;;5.37;45.49;99343.63;5085924;28;20136;-73
2022/04/12 03:28:21;;;;;;;7.90;4.95;;;;;;;5.31;45.42;99349.09;5085455;28;20044;-73
2022/04/12 03:30:51;;;;;;;7.55;4.88;;;;;;;5.38;45.38;99357.63;5085953;28;20099;-73
2022/04/12 03:33:21;;;;;;;6.97;4.80;;;;;;;5.30;46.16;99351.78;5068249;28;20103;-73
2022/04/12 03:35:52;;;;;;;7.85;5.18;;;;;;;5.02;45.60;99309.81;5085745;28;20040;-73
2022/04/12 03:38:22;;;;;;;7.47;4.57;;;;;;;5.25;45.42;99353.72;5085470;28;20045;-73
2022/04/12 03:40:58;;;;;;;8.95;5.60;;;;;;;3.80;45.24;99095.94;5086276;28;20112;-73
2022/04/12 03:43:27;;;;;;;7.32;5.68;;;;;;;5.32;45.59;99360.47;5068194;28;20108;-73
2022/04/12 03:45:57;;;;;;;10.32;4.93;;;;;;;4.15;45.29;99178.75;5085198;28;20036;-73
2022/04/12 03:48:28;;;;;;;7.53;5.22;;;;;;;4.09;46.20;99173.69;5085502;28;20028;-73
2022/04/12 03:50:57;;;;;;;9.52;7.10;;;;;;;5.06;45.59;99309.66;5085251;28;20228;-73
2022/04/12 03:53:28;;;;;;;11.00;8.25;;;;;;;5.30;45.48;99357.91;5085349;28;20041;-73
2022/04/12 03:55:59;;;;;;;10.95;7.88;;;;;;;5.00;45.82;99299.38;5085646;28;20174;-72
2022/04/12 03:58:28;;;;;;;14.57;8.85;;;;;;;5.36;45.45;99362.09;5085661;28;20107;-73
2022/04/12 04:00:58;;;;;;;13.80;8.85;;;;;;;5.33;45.77;99356.94;5085809;28;20252;-73
2022/04/12 04:03:28;;;;;;;12.10;7.75;;;;;;;5.27;46.29;99360.63;5067938;28;20088;-73
2022/04/12 04:05:58;;;;;;;11.35;7.22;;;;;;;5.24;46.19;99352.84;5068293;28;20043;-73
2022/04/12 04:08:28;;;;;;;12.73;6.93;;;;;;;5.25;45.84;99359.81;5085053;28;20053;-73
2022/04/12 04:11:00;;;;;;;9.77;6.85;;;;;;;4.80;46.34;99305.25;5068506;28;20048;-74
2022/04/12 04:13:30;;;;;;;12.40;7.85;;;;;;;5.12;46.11;99390.91;5068109;28;20048;-74
2022/04/12 04:15:59;;;;;;;8.50;5.45;;;;;;;5.07;47.11;99360.44;5051578;28;20060;-73
2022/04/12 04:18:29;;;;;;;9.52;5.82;;;;;;;4.66;46.55;99299.56;5067909;28;20053;-73
2022/04/12 04:20:59;;;;;;;10.05;6.65;;;;;;;5.04;46.78;99371.03;5085120;28;20052;-73
2022/04/12 04:23:29;;;;;;;13.88;10.18;;;;;;;4.94;47.21;99380.13;5084762;28;20103;-73
2022/04/12 04:26:01;;;;;;;12.82;8.73;;;;;;;4.92;47.06;99384.56;5085770;28;20029;-73
2022/04/12 04:28:30;;;;;;;11.40;9.45;;;;;;;5.03;46.62;99392.97;5085088;28;20044;-73
2022/04/12 04:30:59;;;;;;;13.13;9.13;;;;;;;5.04;46.57;99386.81;5084977;28;20086;-73
2022/04/12 04:33:30;;;;;;;16.23;7.88;;;;;;;5.06;46.53;99388.47;5084909;28;20060;-73
2022/04/12 04:36:00;;;;;;;11.43;8.20;;;;;;;5.08;46.36;99383.16;5085273;28;20093;-73
2022/04/12 04:38:30;;;;;;;12.02;7.43;;;;;;;5.15;46.34;99383.81;5084944;28;20045;-73
2022/04/12 04:41:01;;;;;;;9.38;7.63;;;;;;;5.17;46.34;99385.50;5084920;28;20032;-73
2022/04/12 04:43:30;;;;;;;11.25;7.25;;;;;;;4.97;46.47;99352.00;5084835;28;20036;-73
2022/04/12 04:46:00;;;;;;;10.13;6.78;;;;;;;5.24;46.19;99397.53;5084707;28;20082;-73
2022/04/12 04:48:30;;;;;;;12.70;7.55;;;;;;;5.23;46.35;99400.19;5084752;28;20040;-73
2022/04/12 04:51:00;;;;;;;12.25;7.35;;;;;;;4.85;46.53;99335.75;5084642;28;20041;-73
2022/04/12 04:53:31;;;;;;;8.23;6.38;;;;;;;5.20;46.50;99395.03;5084611;28;20040;-73
2022/04/12 04:56:02;;;;;;;10.15;6.30;;;;;;;5.20;47.54;99398.53;5084863;28;20055;-73
2022/04/12 04:58:31;;;;;;;8.02;6.05;;;;;;;5.21;46.55;99402.03;5087323;28;20055;-73
2022/04/12 05:01:01;;;;;;;11.60;7.38;;;;;;;5.23;46.04;99403.69;5071322;28;20061;-73
2022/04/12 05:03:31;;;;;;;9.35;6.47;;;;;;;5.25;45.71;99409.75;5088217;28;20036;-73
2022/04/12 05:06:01;;;;;;;9.85;6.32;;;;;;;5.34;45.11;99406.81;5088278;28;20029;-73
2022/04/12 05:08:31;;;;;;;8.27;6.80;;;;;;;5.43;45.28;99409.13;5088259;28;20056;-73
2022/04/12 05:11:03;;;;;;;12.35;7.50;;;;;;;5.45;44.89;99415.22;5088269;28;20066;-73
2022/04/12 05:13:31;;;;;;;11.95;7.50;;;;;;;5.44;44.51;99424.00;5087859;28;20060;-73
2022/04/12 05:16:02;;;;;;;13.50;8.77;;;;;;;5.44;44.18;99428.41;5070808;28;20048;-73
2022/04/12 05:18:32;;;;;;;11.13;7.22;;;;;;;5.45;43.95;99424.84;5088260;28;20116;-74
2022/04/12 05:21:02;;;;;;;12.27;5.75;;;;;;;4.38;43.96;99238.38;5070665;28;20112;-74
2022/04/12 05:23:32;;;;;;;9.40;5.97;;;;;;;4.62;43.81;99282.19;5087819;28;20060;-73
2022/04/12 05:26:04;;;;;;;8.95;6.85;;;;;;;5.53;43.99;99430.72;5087883;28;20040;-73
2022/04/12 05:28:32;;;;;;;7.93;6.20;;;;;;;5.60;44.34;99436.63;5087920;28;20028;-73
2022/04/12 05:31:03;;;;;;;11.35;6.82;;;;;;;5.66;44.87;99441.69;5088022;28;20041;-73
2022/04/12 05:33:33;;;;;;;10.27;7.05;;;;;;;5.71;44.50;99440.63;5088014;28;20028;-73
2022/04/12 05:36:03;;;;;;;9.85;6.53;;;;;;;5.73;44.61;99437.94;5087645;28;20040;-74
2022/04/12 05:38:33;;;;;;;10.25;6.13;;;;;;;5.75;44.02;99446.63;5087739;28;20044;-74
2022/04/12 05:41:04;;;;;;;9.10;6.25;;;;;;;5.73;43.96;99445.81;5087496;28;20040;-74
2022/04/12 05:43:33;;;;;;;12.50;7.00;;;;;;;5.71;43.90;99443.25;5087306;28;20040;-74
2022/04/12 05:46:03;;;;;;;10.23;7.38;;;;;;;5.71;43.97;99451.13;5087508;28;20071;-73
2022/04/12 05:48:33;;;;;;;10.63;6.97;;;;;;;5.69;44.13;99460.84;5069605;28;20046;-73
2022/04/12 05:51:03;;;;;;;12.55;7.15;;;;;;;5.78;43.67;99467.56;5087287;28;20037;-73
2022/04/12 05:53:34;;;;;;;12.82;8.10;;;;;;;5.20;43.70;99388.03;5087063;28;20060;-73
2022/04/12 05:56:06;;;;;;;14.60;7.35;;;;;;;5.67;43.79;99478.44;5086980;28;20041;-73
2022/04/12 05:58:35;;;;;;;11.57;6.72;;;;;;;5.75;43.39;99481.69;5069552;28;20047;-74
2022/04/12 06:01:04;;;;;;;10.57;6.20;;;;;;;4.25;43.54;99226.56;5087111;28;20040;-74
2022/04/12 06:03:34;;;;;;;9.70;6.68;;;;;;;6.01;42.86;99483.41;5087338;28;20048;-73
2022/04/12 06:06:04;;;;;;;10.40;7.18;;;;;;;6.00;43.04;99492.22;5087378;28;20040;-73
2022/04/12 06:08:35;;;;;;;11.45;7.53;;;;;;;5.76;42.80;99437.84;5085851;28;20052;-74
2022/04/12 06:11:06;;;;;;;11.75;6.93;;;;;;;6.18;42.69;99493.34;5087090;28;20103;-73
2022/04/12 06:13:34;;;;;;;14.73;7.85;;;;;;;8.29;38.88;99481.53;5069291;28;20040;-73
2022/04/12 06:16:05;;;;;;;11.27;6.85;;;;;;;12.68;31.98;99462.78;5087012;28;20028;-73
2022/04/12 06:18:35;;;;;;;10.63;6.95;;;;;;;15.31;28.10;99418.25;5070032;28;20099;-73
2022/04/12 06:21:05;;;;;;;10.35;7.13;;;;;;;16.15;26.90;99438.66;5068983;28;20036;-73
2022/04/12 06:23:35;;;;;;;10.77;6.30;;;;;;;17.48;25.45;99428.94;5086309;28;20083;-73
2022/04/12 06:26:07;;;;;;;9.60;6.35;;;;;;;17.93;25.17;99415.41;5086919;28;20028;-74
2022/04/12 06:28:35;;;;;;;9.40;6.18;;;;;;;18.65;23.96;99374.34;5086511;28;20103;-73
2022/04/12 06:31:06;;;;;;;7.85;5.82;;;;;;;19.20;23.49;99415.91;5087143;28;20040;-74
2022/04/12 06:33:35;;;;;;;9.98;6.57;;;;;;;19.03;23.30;99412.06;5069169;28;20041;-74
2022/04/12 06:36:06;;;;;;;9.32;6.22;;;;;;;19.37;23.62;99412.56;5087494;28;20074;-74
2022/04/12 06:38:36;;;;;;;9.40;6.90;;;;;;;19.79;23.58;99405.13;5069720;28;20056;-74
2022/04/12 06:41:07;;;;;;;9.25;7.32;;;;;;;20.76;22.73;99413.91;5086510;28;20040;-74
2022/04/12 06:43:36;;;;;;;7.40;5.85;;;;;;;20.47;22.75;99414.00;5069246;28;20108;-74
2022/04/12 06:46:06;;;;;;;11.30;7.35;;;;;;;20.34;23.44;99415.31;5086899;28;20025;-74
2022/04/12 06:48:36;;;;;;;8.98;5.85;;;;;;;20.39;22.89;99410.34;5086451;28;20041;-74
2022/04/12 06:51:06;;;;;;;8.43;6.15;;;;;;;20.46;22.33;99424.91;5068853;28;20086;-74
2022/04/12 06:53:37;;;;;;;10.55;6.65;;;;;;;18.38;24.23;99429.41;5069047;28;20064;-74
2022/04/12 06:56:08;;;;;;;11.18;5.95;;;;;;;18.00;25.67;99434.50;5086671;28;20055;-74
2022/04/12 06:58:37;;;;;;;8.40;6.22;;;;;;;17.14;27.59;99438.00;5086182;28;20044;-74
2022/04/12 07:01:07;;;;;;;9.18;6.50;;;;;;;15.94;29.31;99445.66;5068644;28;20043;-74
2022/04/12 07:03:37;;;;;;;10.60;7.57;;;;;;;14.27;30.07;99406.13;5085900;28;20044;-74
2022/04/12 07:06:07;;;;;;;10.52;7.68;;;;;;;12.99;32.22;99420.00;5086059;28;20097;-74
2022/04/12 07:08:37;;;;;;;10.45;7.25;;;;;;;12.14;33.31;99412.88;5085817;28;20048;-74
2022/04/12 07:11:09;;;;;;;8.38;6.22;;;;;;;11.83;34.99;99435.06;5086319;28;20047;-74
2022/04/12 07:13:37;;;;;;;9.38;7.50;;;;;;;11.92;34.89;99480.63;5086236;28;20060;-74
2022/04/12 07:16:09;;;;;;;9.77;6.25;;;;;;;11.81;35.91;99474.16;5086059;28;20040;-74
2022/04/12 07:18:40;;;;;;;10.73;6.95;;;;;;;11.78;36.12;99458.38;5086043;28;20335;-74
2022/04/12 07:21:08;;;;;;;10.30;6.60;;;;;;;11.83;35.61;99479.38;5068572;28;20063;-74
2022/04/12 07:23:39;;;;;;;13.25;7.45;;;;;;;11.73;35.95;99471.06;5087179;28;20047;-74
2022/04/12 07:26:10;;;;;;;14.38;7.32;;;;;;;11.73;34.52;99478.19;5070757;28;20052;-74
2022/04/12 07:28:38;;;;;;;9.02;6.63;;;;;;;11.49;35.76;99489.28;5087215;28;20040;-74
2022/04/12 07:31:08;;;;;;;10.25;7.65;;;;;;;11.42;36.32;99479.94;5088345;28;20029;-74
2022/04/12 07:33:39;;;;;;;11.82;8.50;;;;;;;11.52;36.13;99485.59;5069796;28;20048;-74
2022/04/12 07:36:09;;;;;;;11.98;7.05;;;;;;;11.42;36.00;99487.91;5086100;28;20192;-74
2022/04/12 07:38:39;;;;;;;12.20;6.95;;;;;;;11.57;36.29;99481.72;5086251;28;20044;-74
2022/04/12 07:41:10;;;;;;;9.38;7.18;;;;;;;11.68;35.76;99481.09;5086318;28;20384;-74
2022/04/12 07:43:40;;;;;;;9.50;7.43;;;;;;;11.74;35.59;99493.19;5085295;28;20228;-74
2022/04/12 07:46:10;;;;;;;9.80;7.03;;;;;;;11.68;35.58;99485.56;5085949;28;20041;-74
2022/04/12 07:48:40;;;;;;;11.65;6.95;;;;;;;11.78;35.50;99476.13;5068185;28;20040;-74
2022/04/12 07:51:10;;;;;;;8.88;7.00;;;;;;;11.42;35.69;99464.03;5085053;28;20342;-74
2022/04/12 07:53:40;;;;;;;10.75;6.88;;;;;;;11.79;35.55;99489.31;5085613;28;20119;-74
2022/04/12 07:56:11;;;;;;;11.00;7.05;;;;;;;11.46;35.37;99439.03;5085584;28;20041;-73
2022/04/12 07:58:40;;;;;;;7.90;6.05;;;;;;;11.77;35.40;99483.22;5068497;28;20056;-74
2022/04/12 08:01:11;;;;;;;7.70;5.57;;;;;;;11.40;35.39;99457.94;5067968;28;20047;-74
2022/04/12 08:03:41;;;;;;;7.50;5.85;;;;;;;11.67;35.28;99476.75;5085365;28;20051;-74
2022/04/12 08:06:11;;;;;;;9.65;6.45;;;;;;;11.75;35.21;99478.94;5068286;28;20055;-73
2022/04/12 08:08:41;;;;;;;8.25;5.35;;;;;;;11.44;35.39;99448.88;5085737;28;20044;-74
2022/04/12 08:11:14;;;;;;;9.65;6.25;;;;;;;11.59;35.37;99486.94;5085322;28;20289;-73
2022/04/12 08:13:42;;;;;;;9.45;6.30;;;;;;;11.63;35.61;99488.47;5085193;28;20059;-74
2022/04/12 08:16:15;;;;;;;8.55;6.40;;;;;;;11.70;35.60;99486.34;5085422;28;20041;-74
2022/04/12 08:18:48;;;;;;;7.93;5.35;;;;;;;11.90;35.41;99488.69;5085304;28;20041;-74
2022/04/12 08:21:34;;;;;;;9.45;6.25;;;;;;;11.82;35.40;99489.13;5085269;28;20037;-74
2022/04/12 08:24:08;;;;;;;8.85;6.80;;;;;;;11.83;35.64;99493.50;5085090;28;20067;-74
2022/04/12 08:26:42;;;;;;;10.85;6.45;;;;;;;12.01;35.42;99488.94;5085124;28;20208;-74
2022/04/12 08:29:14;;;;;;;8.15;5.95;;;;;;;12.09;35.32;99491.16;5067564;28;20209;-74
2022/04/12 08:31:48;;;;;;;9.48;6.25;;;;;;;12.24;35.14;99492.06;5067515;28;20063;-74
2022/04/12 08:34:20;;;;;;;8.07;6.90;;;;;;;11.80;35.13;99461.81;5071423;28;20040;-74
2022/04/12 08:36:53;;;;;;;10.02;6.55;;;;;;;11.96;35.49;99498.09;5088903;28;20062;-74
2022/04/12 08:39:25;;;;;;;8.70;6.50;;;;;;;12.13;35.69;99495.34;5089075;28;20281;-74
2022/04/12 08:42:03;;;;;;;8.25;6.05;;;;;;;11.38;35.12;99321.84;5088757;28;20059;-74
2022/04/12 08:44:36;;;;;;;8.77;6.40;;;;;;;11.89;34.78;99380.75;5088686;28;20047;-74
2022/04/12 08:47:09;;;;;;;8.27;5.68;;;;;;;12.74;34.64;99486.34;5071273;28;20055;-74
2022/04/12 08:49:42;;;;;;;12.43;6.60;;;;;;;13.00;34.17;99479.38;5088479;28;20224;-74
2022/04/12 08:52:15;;;;;;;8.48;6.63;;;;;;;13.13;34.11;99480.31;5088740;28;20041;-74
2022/04/12 08:54:47;;;;;;;11.50;6.93;;;;;;;13.27;34.11;99477.63;5088500;28;20063;-74
2022/04/12 08:57:21;;;;;;;11.57;6.13;;;;;;;13.18;33.87;99480.88;5088450;28;20069;-74
2022/04/12 08:59:54;;;;;;;8.43;6.77;;;;;;;12.92;34.12;99439.13;5088799;28;20044;-74
2022/04/12 09:02:26;;;;;;;11.77;6.47;;;;;;;12.31;34.22;99340.13;5088751;28;20174;-74
2022/04/12 09:04:58;;;;;;;8.70;6.10;;;;;;;13.20;34.30;99476.31;5088466;28;20090;-74
2022/04/12 09:07:31;;;;;;;9.50;5.40;;;;;;;13.34;33.90;99475.44;5087901;28;20117;-74
2022/04/12 09:10:08;;;;;;;9.07;6.95;;;;;;;13.29;33.83;99472.22;5087994;28;20044;-74
2022/04/12 09:12:41;;;;;;;8.93;5.32;;;;;;;13.14;34.39;99463.41;5088520;28;20041;-74
2022/04/12 09:15:15;;;;;;;9.02;5.80;;;;;;;13.34;34.00;99462.13;5088402;28;20292;-74
2022/04/12 09:17:48;;;;;;;9.87;5.67;;;;;;;13.55;33.91;99442.13;5088553;28;20036;-74
2022/04/12 09:20:21;;;;;;;10.52;5.82;;;;;;;13.36;33.95;99465.53;5088433;28;20379;-74
2022/04/12 09:22:53;;;;;;;8.93;6.03;;;;;;;13.21;34.15;99416.81;5070862;28;20094;-74
2022/04/12 09:25:25;;;;;;;7.72;5.80;;;;;;;13.03;33.59;99325.75;5071087;28;20090;-74
2022/04/12 09:28:03;;;;;;;10.32;6.05;;;;;;;13.88;33.25;99460.31;5087993;28;20078;-74
2022/04/12 09:30:37;;;;;;;6.93;5.05;;;;;;;13.95;33.31;99455.44;5070529;28;20246;-74
2022/04/12 09:33:09;;;;;;;6.95;5.68;;;;;;;14.15;33.27;99435.44;5070666;28;20051;-73
2022/04/12 09:35:43;;;;;;;6.97;5.85;;;;;;;14.37;32.72;99456.97;5087622;28;20037;-74
2022/04/12 09:38:15;;;;;;;7.15;5.30;;;;;;;13.78;32.67;99328.72;5070305;28;20041;-74
2022/04/12 09:40:47;;;;;;;8.13;5.57;;;;;;;14.52;32.63;99437.25;5087547;28;20099;-74
2022/04/12 09:43:21;;;;;;;7.53;5.78;;;;;;;14.65;32.58;99437.31;5087520;28;20044;-74
2022/04/12 09:45:55;;;;;;;7.87;6.10;;;;;;;14.33;32.24;99395.03;5087271;28;20086;-74
2022/04/12 09:48:33;;;;;;;10.30;6.45;;;;;;;13.30;32.18;99227.25;5087461;28;20379;-74
2022/04/12 09:51:05;;;;;;;7.28;5.43;;;;;;;14.59;32.64;99430.56;5070788;28;20063;-74
2022/04/12 09:53:40;;;;;;;9.05;5.68;;;;;;;14.63;32.71;99433.91;5087633;28;20051;-74
2022/04/12 09:56:16;;;;;;;9.30;5.25;;;;;;;14.15;33.15;99430.09;5085616;28;20052;-74
2022/04/12 09:58:52;;;;;;;7.57;5.63;;;;;;;13.97;33.65;99433.06;5069739;28;20250;-74
2022/04/12 10:01:25;;;;;;;9.48;5.65;;;;;;;14.05;33.54;99427.22;5087128;28;20060;-74
2022/04/12 10:03:59;;;;;;;9.85;6.25;;;;;;;14.07;33.62;99414.63;5087334;28;20041;-74
2022/04/12 10:06:31;;;;;;;6.93;5.60;;;;;;;14.02;33.65;99422.09;5070014;28;20276;-74
2022/04/12 10:09:04;;;;;;;9.68;6.95;;;;;;;13.97;33.97;99419.75;5087044;28;20086;-74
2022/04/12 10:11:37;;;;;;;9.65;5.85;;;;;;;14.16;33.93;99403.34;5086987;28;20048;-74
2022/04/12 10:14:11;;;;;;;8.25;6.38;;;;;;;12.82;34.13;99224.25;5086866;28;20311;-74
2022/04/12 10:16:44;;;;;;;10.70;6.47;;;;;;;14.02;34.20;99400.78;5087063;28;20040;-74
2022/04/12 10:19:18;;;;;;;12.65;7.78;;;;;;;14.27;34.14;99408.78;5069362;28;20316;-71
2022/04/12 10:21:50;;;;;;;10.45;7.85;;;;;;;14.24;34.52;99402.81;5069797;28;20049;-70
2022/04/12 10:24:23;;;;;;;9.90;6.78;;;;;;;13.48;33.93;99220.69;5086802;28;20086;-70
2022/04/12 10:26:57;;;;;;;8.73;6.50;;;;;;;14.79;33.70;99383.81;5086778;28;20082;-70
2022/04/12 10:29:31;;;;;;;10.63;6.53;;;;;;;14.63;33.63;99343.22;5086830;28;20090;-70
2022/04/12 10:32:05;;;;;;;13.93;8.27;;;;;;;14.91;33.63;99393.63;5086760;28;20042;-70
2022/04/12 10:34:58;;;;;;;8.35;7.03;;;;;;;15.15;32.85;99376.78;5086731;28;20040;-69
2022/04/12 10:37:33;;;;;;;8.10;6.25;;;;;;;9.97;33.48;98501.22;5085954;28;20086;-69
2022/04/12 10:40:09;;;;;;;10.73;6.03;;;;;;;15.01;33.07;99333.25;5086415;28;20247;-70
2022/04/12 10:42:41;;;;;;;7.13;5.45;;;;;;;15.09;33.44;99332.69;5086734;28;20086;-69
2022/04/12 10:45:15;;;;;;;12.82;7.38;;;;;;;15.10;33.67;99360.25;5086507;28;20047;-70
2022/04/12 10:47:47;;;;;;;9.20;5.37;;;;;;;15.32;33.14;99366.53;5086323;28;20040;-69
2022/04/12 10:50:20;;;;;;;7.32;5.97;;;;;;;15.50;33.03;99358.13;5069095;28;20044;-70
2022/04/12 10:52:52;;;;;;;10.80;6.32;;;;;;;15.59;32.66;99366.28;5086234;28;20044;-70
2022/04/12 10:55:26;;;;;;;9.13;5.47;;;;;;;15.70;32.71;99357.50;5085477;28;20292;-70
2022/04/12 10:58:12;;;;;;;11.30;5.85;;;;;;;15.78;32.54;99360.44;5086035;28;20198;-70
2022/04/12 11:00:47;;;;;;;7.30;5.45;;;;;;;15.91;32.44;99345.16;5085930;28;20090;-69
2022/04/12 11:03:20;;;;;;;9.55;6.80;;;;;;;15.95;32.38;99351.97;5085953;28;20051;-70
2022/04/12 11:05:55;;;;;;;10.43;6.97;;;;;;;16.01;32.11;99347.97;5085960;28;20093;-70
2022/04/12 11:08:43;;;;;;;7.47;6.28;;;;;;;15.70;32.44;99347.66;5085898;28;20063;-70
2022/04/12 11:11:11;;;;;;;11.90;6.68;;;;;;;15.60;32.25;99353.78;5068949;28;20055;-70
2022/04/12 11:13:41;;;;;;;7.32;5.57;;;;;;;15.63;32.75;99334.84;5068510;28;20064;-70
2022/04/12 11:16:17;;;;;;;9.13;5.18;;;;;;;15.70;32.54;99334.31;5085684;28;20051;-70
2022/04/12 11:18:48;;;;;;;8.00;6.28;;;;;;;15.97;32.36;99335.81;5085980;28;20032;-70
2022/04/12 11:21:18;;;;;;;8.43;5.57;;;;;;;16.24;32.46;99339.00;5068397;28;20109;-70
2022/04/12 11:23:51;;;;;;;8.30;5.53;;;;;;;16.29;31.69;99339.50;5085811;28;20044;-70
2022/04/12 11:26:38;;;;;;;7.88;5.57;;;;;;;15.96;31.92;99307.38;5085660;28;20036;-71
2022/04/12 11:29:11;;;;;;;7.97;5.00;;;;;;;16.19;32.23;99340.34;5085815;28;20098;-70
2022/04/12 11:31:47;;;;;;;11.82;5.22;;;;;;;15.57;32.46;99256.03;5085565;28;20090;-73
2022/04/12 11:34:20;;;;;;;7.35;4.80;;;;;;;16.10;32.39;99333.91;5068161;28;20040;-74
2022/04/12 11:36:54;;;;;;;9.52;5.28;;;;;;;16.02;32.61;99325.63;5085494;28;20040;-74
2022/04/12 11:39:29;;;;;;;8.98;6.40;;;;;;;15.80;32.46;99288.19;5085764;28;20277;-74
2022/04/12 11:42:04;;;;;;;10.50;6.05;;;;;;;15.31;32.11;99190.44;5085735;28;20105;-73
2022/04/12 11:44:37;;;;;;;10.23;5.95;;;;;;;16.20;32.34;99317.97;5068123;28;20040;-73
2022/04/12 11:47:11;;;;;;;8.55;5.30;;;;;;;16.06;32.22;99280.78;5068059;28;20042;-73
2022/04/12 11:49:44;;;;;;;9.27;6.10;;;;;;;16.10;32.29;99311.66;5067921;28;20040;-74
2022/04/12 11:52:16;;;;;;;9.88;6.75;;;;;;;16.24;32.47;99317.63;5085456;28;20036;-74
2022/04/12 11:54:49;;;;;;;9.73;5.72;;;;;;;16.32;31.94;99307.16;5085266;28;20044;-74
2022/04/12 11:57:23;;;;;;;10.05;6.38;;;;;;;16.42;31.59;99303.75;5085376;28;20040;-74
2022/04/12 11:59:57;;;;;;;;;;;;;;;16.26;31.24;99310.31;5085712;28;20040;-74